createdAt,value
2019-02-28T00:01:11.706Z,25.27
2019-02-28T00:03:20.259Z,25.32
2019-02-28T00:05:26.618Z,24.47
2019-02-28T00:07:33.306Z,25.97
2019-02-28T00:09:39.959Z,24.57
2019-02-28T00:11:46.607Z,22.27
2019-02-28T00:13:55.830Z,25.27
2019-02-28T00:16:03.254Z,24.45
2019-02-28T00:18:09.951Z,26.55
2019-02-28T00:20:16.635Z,26.23
2019-02-28T00:22:23.309Z,25.15
2019-02-28T00:24:30.694Z,25.82
2019-02-28T00:26:37.425Z,25.97
2019-02-28T00:28:44.075Z,24.92
2019-02-28T00:30:50.675Z,24.10
2019-02-28T00:32:59.382Z,27.55
2019-02-28T00:35:13.001Z,25.57
2019-02-28T00:37:15.859Z,24.55
2019-02-28T00:39:22.470Z,24.95
2019-02-28T00:41:29.132Z,24.85
2019-02-28T00:43:35.718Z,23.98
2019-02-28T00:45:42.349Z,23.25
2019-02-28T00:47:49.018Z,24.12
2019-02-28T00:49:56.498Z,24.95
2019-02-28T00:52:03.311Z,23.07
2019-02-28T00:54:09.968Z,24.65
2019-02-28T00:56:17.532Z,25.17
2019-02-28T00:58:28.585Z,25.15
2019-02-28T01:00:33.272Z,24.40
2019-02-28T01:02:39.936Z,23.47
2019-02-28T01:04:46.685Z,24.98
2019-02-28T01:06:53.359Z,24.87
2019-02-28T01:09:00.090Z,24.45
2019-02-28T01:11:06.852Z,23.20
2019-02-28T01:13:13.517Z,23.30
2019-02-28T01:15:20.244Z,25.35
2019-02-28T01:17:27.621Z,23.52
2019-02-28T01:19:34.289Z,24.80
2019-02-28T01:21:41.027Z,26.52
2019-02-28T01:23:47.703Z,24.82
2019-02-28T01:25:54.365Z,22.65
2019-02-28T01:28:01.111Z,23.10
2019-02-28T01:30:11.586Z,22.82
2019-02-28T01:32:18.188Z,24.00
2019-02-28T01:34:24.759Z,25.43
2019-02-28T01:36:32.458Z,25.65
2019-02-28T01:38:38.925Z,24.95
2019-02-28T01:40:45.504Z,25.40
2019-02-28T01:42:54.846Z,26.12
2019-02-28T01:45:00.344Z,23.98
2019-02-28T01:47:06.988Z,24.45
2019-02-28T01:49:13.690Z,22.93
2019-02-28T01:51:20.354Z,21.97
2019-02-28T01:53:27.090Z,22.37
2019-02-28T01:55:33.853Z,22.48
2019-02-28T01:57:43.868Z,26.05
2019-02-28T01:59:48.806Z,26.37
2019-02-28T02:01:55.488Z,23.02
2019-02-28T02:04:02.004Z,22.02
2019-02-28T02:06:09.679Z,21.33
2019-02-28T02:08:16.335Z,24.07
2019-02-28T02:10:23.470Z,21.57
2019-02-28T02:12:31.820Z,23.95
2019-02-28T02:14:38.561Z,24.02
2019-02-28T02:16:45.174Z,21.45
2019-02-28T02:18:51.831Z,22.05
2019-02-28T02:21:00.232Z,23.52
2019-02-28T02:23:06.970Z,21.97
2019-02-28T02:25:13.947Z,24.67
2019-02-28T02:27:20.778Z,24.30
2019-02-28T02:29:27.537Z,23.55
2019-02-28T02:31:34.272Z,22.40
2019-02-28T02:33:40.969Z,21.42
2019-02-28T02:35:47.634Z,21.95
2019-02-28T02:37:54.295Z,21.65
2019-02-28T02:40:00.981Z,21.85
2019-02-28T02:42:11.362Z,21.25
2019-02-28T02:44:17.067Z,20.85
2019-02-28T02:46:23.856Z,20.15
2019-02-28T02:48:30.516Z,21.55
2019-02-28T02:50:37.171Z,21.75
2019-02-28T02:52:44.309Z,20.30
2019-02-28T02:54:52.243Z,21.02
2019-02-28T02:56:59.272Z,19.48
2019-02-28T02:59:05.968Z,22.00
2019-02-28T03:01:12.703Z,20.30
2019-02-28T03:03:19.356Z,21.82
2019-02-28T03:05:26.126Z,19.75
2019-02-28T03:07:32.838Z,20.05
2019-02-28T03:09:43.379Z,20.95
2019-02-28T03:11:47.910Z,20.08
2019-02-28T03:13:54.576Z,19.23
2019-02-28T03:16:01.246Z,21.02
2019-02-28T03:18:07.926Z,20.72
2019-02-28T03:20:15.746Z,19.98
2019-02-28T03:22:28.384Z,19.32
2019-02-28T03:24:30.832Z,21.02
2019-02-28T03:26:41.356Z,20.25
2019-02-28T03:28:46.893Z,20.17
2019-02-28T03:30:53.652Z,18.62
2019-02-28T03:33:00.515Z,20.48
2019-02-28T03:35:08.254Z,18.50
2019-02-28T03:37:15.027Z,18.70
2019-02-28T03:39:24.553Z,19.92
2019-02-28T03:41:30.248Z,20.30
2019-02-28T03:43:42.484Z,20.05
2019-02-28T03:45:45.381Z,19.50
2019-02-28T03:47:58.444Z,19.55
2019-02-28T03:50:00.594Z,18.57
2019-02-28T03:52:07.311Z,18.05
2019-02-28T03:54:13.962Z,18.60
2019-02-28T03:56:20.706Z,19.32
2019-02-28T03:58:27.446Z,17.07
2019-02-28T04:00:34.409Z,19.77
2019-02-28T04:02:41.084Z,17.80
2019-02-28T04:04:50.150Z,17.60
2019-02-28T04:06:57.283Z,17.42
2019-02-28T04:09:08.576Z,17.37
2019-02-28T04:11:13.526Z,17.95
2019-02-28T04:13:20.449Z,18.00
2019-02-28T04:15:27.125Z,17.48
2019-02-28T04:17:33.880Z,18.35
2019-02-28T04:19:40.519Z,17.48
2019-02-28T04:21:47.858Z,17.62
2019-02-28T04:23:54.577Z,17.37
2019-02-28T04:26:01.318Z,20.15
2019-02-28T04:28:09.001Z,18.12
2019-02-28T04:30:16.683Z,18.57
2019-02-28T04:32:27.566Z,19.02
2019-02-28T04:34:31.806Z,18.42
2019-02-28T04:36:38.462Z,18.77
2019-02-28T04:38:45.126Z,21.33
2019-02-28T04:40:51.744Z,25.45
2019-02-28T04:42:58.339Z,24.35
2019-02-28T04:45:07.905Z,21.70
2019-02-28T04:47:14.669Z,20.62
2019-02-28T04:49:22.681Z,18.55
2019-02-28T04:51:29.612Z,18.00
2019-02-28T04:53:36.358Z,18.92
2019-02-28T04:55:43.023Z,17.67
2019-02-28T04:57:51.595Z,19.25
2019-02-28T04:59:57.993Z,17.92
2019-02-28T05:02:04.667Z,18.37
2019-02-28T05:04:11.345Z,17.55
2019-02-28T05:06:18.351Z,18.00
2019-02-28T05:08:26.445Z,20.00
2019-02-28T05:10:33.190Z,19.10
2019-02-28T05:12:40.963Z,20.12
2019-02-28T05:14:47.981Z,20.92
2019-02-28T05:16:54.709Z,19.55
2019-02-28T05:19:01.534Z,21.37
2019-02-28T05:21:08.872Z,21.23
2019-02-28T05:23:15.815Z,20.62
2019-02-28T05:25:22.576Z,21.42
2019-02-28T05:27:34.851Z,21.27
2019-02-28T05:29:37.607Z,19.37
2019-02-28T05:31:44.354Z,19.55
2019-02-28T05:33:52.022Z,18.62
2019-02-28T05:36:00.291Z,19.32
2019-02-28T05:38:07.070Z,18.67
2019-02-28T05:40:15.649Z,20.05
2019-02-28T05:42:23.353Z,19.23
2019-02-28T05:44:30.794Z,18.95
2019-02-28T05:46:37.470Z,19.62
2019-02-28T05:48:44.231Z,18.00
2019-02-28T05:50:53.327Z,20.02
2019-02-28T05:53:00.298Z,19.65
2019-02-28T05:55:09.554Z,19.60
2019-02-28T05:57:16.240Z,18.70
2019-02-28T05:59:26.161Z,19.95
2019-02-28T06:01:31.332Z,22.20
2019-02-28T06:03:38.024Z,23.32
2019-02-28T06:05:46.422Z,20.08
2019-02-28T06:07:53.097Z,21.23
2019-02-28T06:09:59.869Z,22.13
2019-02-28T06:12:09.328Z,21.62
2019-02-28T06:14:15.067Z,20.75
2019-02-28T06:16:21.759Z,22.95
2019-02-28T06:18:32.669Z,24.10
2019-02-28T06:20:36.779Z,31.10
2019-02-28T06:22:43.462Z,29.20
2019-02-28T06:24:50.522Z,27.20
2019-02-28T06:26:57.249Z,21.57
2019-02-28T06:29:04.976Z,21.77
2019-02-28T06:31:14.334Z,21.30
2019-02-28T06:33:21.288Z,22.58
2019-02-28T06:35:28.205Z,23.07
2019-02-28T06:37:35.414Z,21.25
2019-02-28T06:39:43.238Z,22.70
2019-02-28T06:41:49.928Z,22.58
2019-02-28T06:43:57.679Z,20.20
2019-02-28T06:46:04.398Z,21.00
2019-02-28T06:48:11.012Z,22.32
2019-02-28T06:50:18.178Z,20.50
2019-02-28T06:52:25.306Z,21.70
2019-02-28T06:54:32.789Z,21.27
2019-02-28T06:56:39.522Z,24.80
2019-02-28T06:58:46.123Z,23.20
2019-02-28T07:00:52.792Z,23.20
2019-02-28T07:03:03.254Z,22.98
2019-02-28T07:05:08.286Z,22.75
2019-02-28T07:07:15.024Z,25.00
2019-02-28T07:09:21.773Z,27.55
2019-02-28T07:11:28.447Z,24.18
2019-02-28T07:13:39.040Z,22.60
2019-02-28T07:15:43.491Z,22.45
2019-02-28T07:17:50.159Z,21.77
2019-02-28T07:20:01.365Z,22.90
2019-02-28T07:22:05.139Z,20.68
2019-02-28T07:24:11.808Z,22.25
2019-02-28T07:26:18.902Z,21.07
2019-02-28T07:28:26.254Z,21.75
2019-02-28T07:30:32.918Z,22.93
2019-02-28T07:32:39.615Z,23.07
2019-02-28T07:34:46.286Z,20.90
2019-02-28T07:36:52.884Z,20.92
2019-02-28T07:39:01.322Z,21.23
2019-02-28T07:41:09.534Z,21.05
2019-02-28T07:43:16.215Z,20.75
2019-02-28T07:45:22.912Z,20.70
2019-02-28T07:47:29.575Z,21.70
2019-02-28T07:49:37.014Z,20.05
2019-02-28T07:51:43.705Z,20.08
2019-02-28T07:53:50.457Z,18.62
2019-02-28T07:55:57.114Z,18.77
2019-02-28T07:58:03.884Z,17.80
2019-02-28T08:00:25.024Z,19.48
2019-02-28T08:02:31.694Z,17.65
2019-02-28T08:04:38.472Z,17.67
2019-02-28T08:06:45.134Z,17.62
2019-02-28T08:08:52.885Z,17.75
2019-02-28T08:10:59.741Z,18.20
2019-02-28T08:13:06.538Z,18.60
2019-02-28T08:15:30.722Z,18.52
2019-02-28T08:17:40.647Z,19.52
2019-02-28T08:19:45.790Z,19.40
2019-02-28T08:21:52.490Z,19.07
2019-02-28T08:23:59.194Z,18.77
2019-02-28T08:26:05.863Z,19.45
2019-02-28T08:28:12.523Z,18.77
2019-02-28T08:30:28.396Z,19.45
2019-02-28T08:32:35.090Z,19.00
2019-02-28T08:34:41.754Z,20.10
2019-02-28T08:36:48.437Z,18.00
2019-02-28T08:38:55.115Z,19.62
2019-02-28T08:41:01.770Z,19.07
2019-02-28T08:43:10.524Z,19.00
2019-02-28T08:45:17.315Z,18.10
2019-02-28T08:47:23.982Z,19.45
2019-02-28T08:49:30.740Z,17.60
2019-02-28T08:51:37.413Z,20.45
2019-02-28T08:53:44.003Z,18.12
2019-02-28T08:55:50.692Z,19.77
2019-02-28T08:58:04.330Z,18.87
2019-02-28T09:00:18.155Z,18.80
2019-02-28T09:02:24.857Z,21.07
2019-02-28T09:04:40.782Z,18.82
2019-02-28T09:06:41.011Z,17.15
2019-02-28T09:08:48.340Z,19.05
2019-02-28T09:10:55.910Z,18.87
2019-02-28T09:13:07.748Z,18.55
2019-02-28T09:15:14.950Z,18.62
2019-02-28T09:17:21.634Z,19.67
2019-02-28T09:19:28.286Z,16.90
2019-02-28T09:21:34.979Z,17.65
2019-02-28T09:23:41.669Z,18.25
2019-02-28T09:25:48.397Z,17.32
2019-02-28T09:27:55.105Z,17.52
2019-02-28T09:30:01.772Z,16.77
2019-02-28T09:32:10.248Z,16.25
2019-02-28T09:34:16.811Z,17.20
2019-02-28T09:36:23.502Z,18.17
2019-02-28T09:38:30.170Z,17.92
2019-02-28T09:40:36.854Z,16.48
2019-02-28T09:42:44.549Z,18.00
2019-02-28T09:44:52.271Z,16.40
2019-02-28T09:46:58.973Z,16.93
2019-02-28T09:49:05.854Z,16.23
2019-02-28T09:51:12.577Z,15.75
2019-02-28T09:53:19.204Z,17.30
2019-02-28T09:55:25.951Z,18.20
2019-02-28T09:57:32.614Z,16.97
2019-02-28T09:59:39.315Z,16.82
2019-02-28T10:01:46.057Z,16.80
2019-02-28T10:03:55.498Z,17.12
2019-02-28T10:06:02.129Z,19.45
2019-02-28T10:08:08.792Z,19.35
2019-02-28T10:10:29.930Z,17.95
2019-02-28T10:12:39.403Z,17.92
2019-02-28T10:14:44.998Z,19.23
2019-02-28T10:16:52.646Z,19.73
2019-02-28T10:19:00.104Z,20.20
2019-02-28T10:21:06.777Z,19.87
2019-02-28T10:23:13.436Z,19.32
2019-02-28T10:25:20.130Z,19.45
2019-02-28T10:27:27.798Z,19.17
2019-02-28T10:29:34.480Z,19.87
2019-02-28T10:31:41.174Z,19.42
2019-02-28T10:33:49.527Z,20.88
2019-02-28T10:35:56.239Z,23.05
2019-02-28T10:38:02.944Z,20.77
2019-02-28T10:40:17.939Z,19.65
2019-02-28T10:42:26.415Z,21.48
2019-02-28T10:44:33.109Z,20.43
2019-02-28T10:46:39.795Z,22.70
2019-02-28T10:48:50.817Z,20.32
2019-02-28T10:50:54.852Z,22.22
2019-02-28T10:53:05.630Z,19.82
2019-02-28T10:55:13.475Z,20.95
2019-02-28T10:57:20.164Z,22.82
2019-02-28T10:59:26.922Z,22.87
2019-02-28T11:01:33.598Z,25.50
2019-02-28T11:03:40.360Z,22.62
2019-02-28T11:05:47.297Z,22.02
2019-02-28T11:07:54.227Z,22.20
2019-02-28T11:10:02.100Z,22.22
2019-02-28T11:12:09.179Z,22.22
2019-02-28T11:14:16.984Z,21.40
2019-02-28T11:16:24.471Z,22.27
2019-02-28T11:18:32.137Z,22.22
2019-02-28T11:20:40.612Z,20.48
2019-02-28T11:22:47.298Z,22.10
2019-02-28T11:24:54.239Z,22.95
2019-02-28T11:27:00.907Z,23.38
2019-02-28T11:29:07.688Z,20.17
2019-02-28T11:31:16.377Z,22.58
2019-02-28T11:33:23.420Z,22.98
2019-02-28T11:35:30.709Z,23.45
2019-02-28T11:37:37.681Z,23.75
2019-02-28T11:39:44.335Z,21.90
2019-02-28T11:41:52.654Z,22.40
2019-02-28T11:43:59.443Z,21.02
2019-02-28T11:46:07.106Z,23.67
2019-02-28T11:48:20.148Z,21.37
2019-02-28T11:50:26.082Z,21.55
2019-02-28T11:52:32.745Z,21.35
2019-02-28T11:54:39.455Z,21.82
2019-02-28T11:56:46.124Z,21.30
2019-02-28T11:58:52.858Z,19.57
2019-02-28T12:00:59.559Z,23.18
2019-02-28T12:03:06.506Z,21.52
2019-02-28T12:05:15.690Z,21.05
2019-02-28T12:07:21.647Z,21.77
2019-02-28T12:09:28.318Z,23.02
2019-02-28T12:11:36.484Z,21.30
2019-02-28T12:13:43.385Z,21.27
2019-02-28T12:15:50.062Z,20.55
2019-02-28T12:17:56.725Z,21.68
2019-02-28T12:20:03.939Z,20.02
2019-02-28T12:22:12.102Z,20.52
2019-02-28T12:24:19.090Z,21.48
2019-02-28T12:26:25.854Z,22.95
2019-02-28T12:28:35.266Z,19.92
2019-02-28T12:30:41.078Z,21.75
2019-02-28T12:32:47.769Z,21.17
2019-02-28T12:34:54.385Z,19.52
2019-02-28T12:37:01.042Z,19.48
2019-02-28T12:39:09.046Z,19.40
2019-02-28T12:41:15.729Z,19.80
2019-02-28T12:43:22.388Z,19.87
2019-02-28T12:45:32.825Z,18.27
2019-02-28T12:47:41.558Z,18.70
2019-02-28T12:49:47.873Z,14.85
2019-02-28T12:51:54.583Z,15.45
2019-02-28T12:54:01.240Z,15.68
2019-02-28T12:56:07.976Z,17.23
2019-02-28T12:58:14.680Z,17.37
2019-02-28T13:00:28.334Z,18.50
2019-02-28T13:02:35.011Z,16.62
2019-02-28T13:04:41.777Z,17.42
2019-02-28T13:06:48.516Z,16.93
2019-02-28T13:08:55.205Z,17.25
2019-02-28T13:11:04.480Z,16.70
2019-02-28T13:13:10.250Z,18.32
2019-02-28T13:15:18.992Z,17.15
2019-02-28T13:17:28.322Z,15.50
2019-02-28T13:19:35.057Z,13.72
2019-02-28T13:21:43.661Z,16.25
2019-02-28T13:23:50.101Z,15.30
2019-02-28T13:25:59.974Z,17.60
2019-02-28T13:28:06.338Z,17.82
2019-02-28T13:30:22.564Z,17.52
2019-02-28T13:32:29.222Z,19.60
2019-02-28T13:34:35.890Z,19.07
2019-02-28T13:36:42.584Z,18.55
2019-02-28T13:38:49.515Z,19.20
2019-02-28T13:40:57.703Z,18.30
2019-02-28T13:43:04.507Z,19.90
2019-02-28T13:45:22.188Z,21.50
2019-02-28T13:47:23.009Z,20.00
2019-02-28T13:49:29.697Z,19.87
2019-02-28T13:51:40.442Z,20.45
2019-02-28T13:53:44.742Z,20.10
2019-02-28T13:55:53.002Z,21.02
2019-02-28T13:57:59.831Z,21.10
2019-02-28T14:00:20.766Z,18.35
2019-02-28T14:02:29.776Z,20.40
2019-02-28T14:04:35.911Z,21.00
2019-02-28T14:06:43.066Z,20.72
2019-02-28T14:08:49.828Z,20.75
2019-02-28T14:10:56.579Z,19.62
2019-02-28T14:13:04.026Z,23.10
2019-02-28T14:15:17.862Z,22.45
2019-02-28T14:17:24.591Z,22.75
2019-02-28T14:19:31.342Z,21.93
2019-02-28T14:21:39.644Z,22.37
2019-02-28T14:23:46.390Z,22.33
2019-02-28T14:25:54.119Z,20.10
2019-02-28T14:28:01.472Z,20.55
2019-02-28T14:30:19.689Z,22.02
2019-02-28T14:32:26.454Z,23.87
2019-02-28T14:34:33.163Z,21.55
2019-02-28T14:36:41.726Z,22.77
2019-02-28T14:38:49.947Z,19.62
2019-02-28T14:40:56.618Z,21.35
2019-02-28T14:43:03.288Z,22.58
2019-02-28T14:45:22.940Z,23.25
2019-02-28T14:47:29.729Z,24.47
2019-02-28T14:49:36.386Z,21.20
2019-02-28T14:51:43.048Z,22.93
2019-02-28T14:53:50.097Z,21.80
2019-02-28T14:55:58.373Z,22.65
2019-02-28T14:58:05.155Z,19.57
2019-02-28T15:00:22.588Z,22.37
2019-02-28T15:02:29.260Z,22.02
2019-02-28T15:04:35.926Z,20.88
2019-02-28T15:06:42.636Z,20.32
2019-02-28T15:08:50.970Z,19.60
2019-02-28T15:10:57.784Z,21.65
2019-02-28T15:13:05.153Z,20.02
2019-02-28T15:15:18.086Z,20.00
2019-02-28T15:17:24.223Z,20.30
2019-02-28T15:19:30.977Z,19.62
2019-02-28T15:21:42.367Z,21.25
2019-02-28T15:23:46.070Z,18.62
2019-02-28T15:25:54.905Z,21.07
2019-02-28T15:28:01.706Z,20.20
2019-02-28T15:30:17.944Z,20.02
2019-02-28T15:32:25.656Z,20.62
2019-02-28T15:34:32.380Z,18.87
2019-02-28T15:36:39.048Z,17.82
2019-02-28T15:38:45.739Z,19.60
2019-02-28T15:40:52.419Z,21.75
2019-02-28T15:42:59.158Z,21.17
2019-02-28T15:45:09.227Z,21.33
2019-02-28T15:47:15.951Z,22.13
2019-02-28T15:49:24.487Z,20.30
2019-02-28T15:51:31.174Z,19.50
2019-02-28T15:53:37.903Z,18.30
2019-02-28T15:55:44.646Z,20.77
2019-02-28T15:57:51.411Z,20.17
2019-02-28T15:59:58.655Z,21.10
2019-02-28T16:02:06.306Z,22.22
2019-02-28T16:04:13.779Z,19.87
2019-02-28T16:06:20.662Z,21.02
2019-02-28T16:08:28.818Z,21.82
2019-02-28T16:10:38.210Z,23.30
2019-02-28T16:12:46.587Z,23.10
2019-02-28T16:14:53.312Z,22.58
2019-02-28T16:17:03.582Z,21.45
2019-02-28T16:19:10.394Z,22.85
2019-02-28T16:21:17.053Z,21.17
2019-02-28T16:23:27.570Z,22.35
2019-02-28T16:25:39.852Z,21.90
2019-02-28T16:27:46.582Z,23.55
2019-02-28T16:29:55.809Z,20.88
2019-02-28T16:32:01.642Z,22.82
2019-02-28T16:34:08.540Z,21.73
2019-02-28T16:36:15.945Z,22.07
2019-02-28T16:38:22.725Z,21.17
2019-02-28T16:40:32.846Z,20.32
2019-02-28T16:42:39.539Z,19.95
2019-02-28T16:44:46.371Z,20.35
2019-02-28T16:46:53.082Z,18.75
2019-02-28T16:48:59.772Z,20.77
2019-02-28T16:51:06.499Z,20.43
2019-02-28T16:53:16.147Z,20.82
2019-02-28T16:55:21.563Z,20.30
2019-02-28T16:57:28.294Z,19.80
2019-02-28T16:59:34.959Z,20.20
2019-02-28T17:01:41.660Z,18.60
2019-02-28T17:03:48.303Z,19.60
2019-02-28T17:05:55.061Z,18.82
2019-02-28T17:08:01.824Z,18.80
2019-02-28T17:10:16.488Z,18.25
2019-02-28T17:12:27.228Z,18.52
2019-02-28T17:14:33.181Z,16.40
2019-02-28T17:16:41.493Z,17.52
2019-02-28T17:18:48.241Z,16.30
2019-02-28T17:20:55.111Z,18.15
2019-02-28T17:23:02.192Z,17.70
2019-02-28T17:25:09.298Z,16.35
2019-02-28T17:27:27.450Z,16.30
2019-02-28T17:29:38.549Z,15.28
2019-02-28T17:31:48.213Z,16.10
2019-02-28T17:33:54.839Z,17.23
2019-02-28T17:36:02.603Z,15.55
2019-02-28T17:38:09.333Z,16.75
2019-02-28T17:40:18.597Z,16.05
2019-02-28T17:42:25.274Z,16.60
2019-02-28T17:44:44.866Z,16.12
2019-02-28T17:47:00.586Z,14.43
2019-02-28T17:49:31.162Z,14.98
2019-02-28T17:51:45.288Z,16.02
2019-02-28T17:54:23.188Z,15.68
2019-02-28T17:57:07.587Z,15.18
2019-02-28T17:59:27.594Z,14.43
2019-02-28T18:01:44.086Z,14.80
2019-02-28T18:04:16.293Z,14.07
2019-02-28T18:06:55.600Z,15.40
2019-02-28T18:09:17.923Z,13.43
2019-02-28T18:12:01.545Z,13.30
2019-02-28T18:14:27.842Z,13.38
2019-02-28T18:16:54.563Z,13.58
2019-02-28T18:19:18.082Z,14.80
2019-02-28T18:21:47.299Z,13.45
2019-02-28T18:24:20.710Z,13.90
2019-02-28T18:27:04.964Z,13.88
2019-02-28T18:29:18.710Z,13.60
2019-02-28T18:31:25.674Z,12.88
2019-02-28T18:33:33.030Z,13.80
2019-02-28T18:35:39.689Z,11.78
2019-02-28T18:37:46.383Z,13.25
2019-02-28T18:39:53.133Z,12.68
2019-02-28T18:41:59.868Z,13.43
2019-02-28T18:44:07.708Z,14.60
2019-02-28T18:46:15.498Z,11.08
2019-02-28T18:48:23.705Z,13.90
2019-02-28T18:50:30.459Z,12.93
2019-02-28T18:52:37.122Z,12.88
2019-02-28T18:54:43.853Z,12.75
2019-02-28T18:56:50.746Z,12.55
2019-02-28T18:58:59.030Z,14.07
2019-02-28T19:01:06.163Z,13.58
2019-02-28T19:03:13.251Z,13.43
2019-02-28T19:05:19.916Z,13.40
2019-02-28T19:07:26.587Z,14.93
2019-02-28T19:09:33.303Z,12.73
2019-02-28T19:11:40.028Z,11.93
2019-02-28T19:13:46.688Z,8.55
2019-02-28T19:15:53.434Z,7.30
2019-02-28T19:18:00.191Z,5.53
2019-02-28T19:20:10.448Z,6.10
2019-02-28T19:22:17.133Z,5.40
2019-02-28T19:24:23.787Z,6.62
2019-02-28T19:26:31.492Z,5.05
2019-02-28T19:28:38.261Z,4.10
2019-02-28T19:30:44.913Z,4.97
2019-02-28T19:32:51.710Z,4.28
2019-02-28T19:34:58.501Z,3.62
2019-02-28T19:37:05.149Z,3.72
2019-02-28T19:39:11.817Z,3.70
2019-02-28T19:41:18.556Z,3.75
2019-02-28T19:43:25.214Z,3.22
2019-02-28T19:45:42.139Z,3.02
2019-02-28T19:47:49.856Z,3.12
2019-02-28T19:49:56.613Z,2.40
2019-02-28T19:52:03.414Z,2.50
2019-02-28T19:54:10.089Z,2.58
2019-02-28T19:56:16.815Z,2.30
2019-02-28T19:58:24.946Z,2.60
2019-02-28T20:00:31.619Z,2.35
2019-02-28T20:02:39.439Z,2.30
2019-02-28T20:04:46.103Z,2.17
2019-02-28T20:06:52.898Z,2.67
2019-02-28T20:08:59.818Z,2.27
2019-02-28T20:11:08.417Z,2.75
2019-02-28T20:13:15.222Z,2.33
2019-02-28T20:15:24.522Z,2.25
2019-02-28T20:17:31.168Z,2.15
2019-02-28T20:19:37.838Z,2.15
2019-02-28T20:21:46.138Z,2.42
2019-02-28T20:23:52.784Z,2.72
2019-02-28T20:25:59.637Z,2.52
2019-02-28T20:28:07.583Z,2.20
2019-02-28T20:30:23.365Z,1.60
2019-02-28T20:32:30.145Z,2.02
2019-02-28T20:34:36.884Z,1.77
2019-02-28T20:36:45.556Z,1.50
2019-02-28T20:38:53.677Z,1.17
2019-02-28T20:41:00.431Z,1.67
2019-02-28T20:43:07.569Z,1.55
2019-02-28T20:45:14.463Z,1.30
2019-02-28T20:47:22.308Z,1.70
2019-02-28T20:49:29.080Z,1.67
2019-02-28T20:51:39.880Z,1.80
2019-02-28T20:53:48.053Z,1.70
2019-02-28T20:55:54.774Z,1.80
2019-02-28T20:58:01.531Z,2.12
2019-02-28T21:00:17.201Z,1.95
2019-02-28T21:02:25.878Z,1.50
2019-02-28T21:04:32.572Z,1.57
2019-02-28T21:06:40.710Z,2.35
2019-02-28T21:08:48.895Z,2.20
2019-02-28T21:10:55.655Z,1.85
2019-02-28T21:13:02.310Z,2.02
2019-02-28T21:15:12.211Z,1.42
2019-02-28T21:17:18.883Z,1.80
2019-02-28T21:19:25.604Z,1.72
2019-02-28T21:21:33.368Z,2.02
2019-02-28T21:23:40.050Z,1.65
2019-02-28T21:25:46.723Z,2.33
2019-02-28T21:27:53.444Z,2.00
2019-02-28T21:30:00.350Z,2.00
2019-02-28T21:32:08.662Z,1.80
2019-02-28T21:34:15.384Z,1.93
2019-02-28T21:36:22.139Z,1.90
2019-02-28T21:38:29.961Z,2.10
2019-02-28T21:40:36.837Z,2.37
2019-02-28T21:42:43.933Z,2.50
2019-02-28T21:44:50.608Z,2.70
2019-02-28T21:46:57.367Z,2.20
2019-02-28T21:49:04.257Z,2.58
2019-02-28T21:51:10.962Z,2.02
2019-02-28T21:53:17.727Z,2.08
2019-02-28T21:55:24.506Z,1.98
2019-02-28T21:57:31.156Z,2.47
2019-02-28T21:59:39.465Z,2.60
2019-02-28T22:01:46.130Z,2.20
2019-02-28T22:03:52.860Z,2.27
2019-02-28T22:05:59.576Z,2.60
2019-02-28T22:08:06.284Z,2.52
2019-02-28T22:10:16.867Z,2.33
2019-02-28T22:12:23.515Z,2.35
2019-02-28T22:14:30.217Z,2.05
2019-02-28T22:16:36.992Z,2.05
2019-02-28T22:18:43.638Z,2.22
2019-02-28T22:20:50.640Z,1.67
2019-02-28T22:22:57.307Z,1.70
2019-02-28T22:25:04.662Z,1.70
2019-02-28T22:27:11.338Z,1.98
2019-02-28T22:29:17.989Z,2.02
2019-02-28T22:31:29.069Z,2.02
2019-02-28T22:33:43.940Z,2.52
2019-02-28T22:35:57.986Z,2.02
2019-02-28T22:38:04.633Z,2.27
2019-02-28T22:40:12.396Z,2.35
2019-02-28T22:42:22.459Z,2.72
2019-02-28T22:44:27.451Z,3.08
2019-02-28T22:46:34.202Z,3.20
2019-02-28T22:48:40.853Z,3.77
2019-02-28T22:50:47.580Z,4.30
2019-02-28T22:52:55.242Z,4.60
2019-02-28T22:55:03.135Z,3.98
2019-02-28T22:57:09.835Z,3.65
2019-02-28T22:59:16.536Z,3.77
2019-02-28T23:01:25.889Z,4.72
2019-02-28T23:03:34.698Z,5.15
2019-02-28T23:05:41.396Z,5.25
2019-02-28T23:07:48.048Z,5.25
2019-02-28T23:09:54.783Z,4.95
2019-02-28T23:12:01.541Z,5.37
2019-02-28T23:14:08.202Z,6.67
2019-02-28T23:16:14.854Z,6.80
2019-02-28T23:18:21.545Z,7.37
2019-02-28T23:20:28.200Z,7.87
2019-02-28T23:22:34.870Z,9.38
2019-02-28T23:24:41.547Z,8.85
2019-02-28T23:27:17.007Z,8.90
2019-02-28T23:29:25.267Z,9.83
2019-02-28T23:31:47.973Z,9.48
2019-02-28T23:34:01.329Z,9.18
2019-02-28T23:36:06.533Z,10.95
2019-02-28T23:38:13.214Z,10.95
2019-02-28T23:40:19.946Z,10.85
2019-02-28T23:42:26.608Z,11.63
2019-02-28T23:44:33.295Z,11.35
2019-02-28T23:46:39.877Z,11.70
2019-02-28T23:48:46.540Z,11.48
2019-02-28T23:50:53.292Z,12.78
2019-02-28T23:53:00.031Z,12.35
2019-02-28T23:55:09.284Z,11.90
2019-02-28T23:57:16.048Z,11.48
2019-02-28T23:59:22.709Z,12.13
